Terminal Aerodrome Forecast
Issued by NWS

Home | Current Version | Previous Version | Text Only | Print | Product List | Glossary On
Versions: 1 2 3 4 5 6 7 8 9 10 11 12 13 14 15 16 17
000
FTUS43 KDMX 262326
TAFMCW
TAF
KMCW 262326Z 2700/2724 34018G24KT P6SM SKC
     FM270200 32010KT P6SM SKC
     FM271000 27006KT P6SM SKC
     FM271600 29015G21KT P6SM FEW250
     FM272200 33019G27KT P6SM FEW160=

USA.gov is the U.S. government's official web portal to all federal, state and local government web resources and services.